sensor_id;sensor_type;location;lat;lon;timestamp;pressure;altitude;pressure_sealevel;temperature;humidity
18755;BME280;35061;47.664;9.166;2024-01-30T00:02:18;103160.93;;;1.53;100.00
18755;BME280;35061;47.664;9.166;2024-01-30T00:04:46;103168.52;;;1.49;100.00
18755;BME280;35061;47.664;9.166;2024-01-30T00:07:14;103163.05;;;1.41;100.00
18755;BME280;35061;47.664;9.166;2024-01-30T00:09:43;103165.54;;;1.42;100.00
18755;BME280;35061;47.664;9.166;2024-01-30T00:12:11;103157.59;;;1.48;100.00
18755;BME280;35061;47.664;9.166;2024-01-30T00:14:41;103159.20;;;1.49;100.00
18755;BME280;35061;47.664;9.166;2024-01-30T00:17:10;103162.80;;;1.46;100.00
18755;BME280;35061;47.664;9.166;2024-01-30T00:19:38;103161.69;;;1.50;100.00
18755;BME280;35061;47.664;9.166;2024-01-30T00:22:06;103164.49;;;1.50;100.00
18755;BME280;35061;47.664;9.166;2024-01-30T00:24:35;103164.10;;;1.52;100.00
18755;BME280;35061;47.664;9.166;2024-01-30T00:27:03;103162.41;;;1.47;100.00
18755;BME280;35061;47.664;9.166;2024-01-30T00:29:31;103159.52;;;1.44;100.00
18755;BME280;35061;47.664;9.166;2024-01-30T00:32:01;103167.41;;;1.34;100.00
18755;BME280;35061;47.664;9.166;2024-01-30T00:34:29;103168.52;;;1.30;100.00
18755;BME280;35061;47.664;9.166;2024-01-30T00:36:57;103163.98;;;1.25;100.00
18755;BME280;35061;47.664;9.166;2024-01-30T00:39:25;103169.23;;;1.27;100.00
18755;BME280;35061;47.664;9.166;2024-01-30T00:41:53;103165.54;;;1.22;100.00
18755;BME280;35061;47.664;9.166;2024-01-30T00:44:21;103167.83;;;1.17;100.00
18755;BME280;35061;47.664;9.166;2024-01-30T00:46:49;103158.48;;;1.13;100.00
18755;BME280;35061;47.664;9.166;2024-01-30T00:49:17;103161.65;;;1.11;100.00
18755;BME280;35061;47.664;9.166;2024-01-30T00:51:46;103166.78;;;1.05;100.00
18755;BME280;35061;47.664;9.166;2024-01-30T00:54:14;103171.98;;;1.03;100.00
18755;BME280;35061;47.664;9.166;2024-01-30T00:56:42;103165.94;;;1.05;100.00
18755;BME280;35061;47.664;9.166;2024-01-30T00:59:11;103170.12;;;1.11;100.00
18755;BME280;35061;47.664;9.166;2024-01-30T01:01:39;103171.00;;;1.15;100.00
18755;BME280;35061;47.664;9.166;2024-01-30T01:04:07;103164.56;;;1.15;100.00
18755;BME280;35061;47.664;9.166;2024-01-30T01:06:35;103168.09;;;1.11;100.00
18755;BME280;35061;47.664;9.166;2024-01-30T01:09:04;103170.12;;;1.11;100.00
18755;BME280;35061;47.664;9.166;2024-01-30T01:11:32;103165.67;;;1.10;100.00
18755;BME280;35061;47.664;9.166;2024-01-30T01:14:00;103163.52;;;1.03;100.00
18755;BME280;35061;47.664;9.166;2024-01-30T01:16:27;103168.32;;;1.03;100.00
18755;BME280;35061;47.664;9.166;2024-01-30T01:18:56;103166.33;;;1.03;100.00
18755;BME280;35061;47.664;9.166;2024-01-30T01:21:24;103172.51;;;1.09;100.00
18755;BME280;35061;47.664;9.166;2024-01-30T01:23:52;103171.69;;;1.08;100.00
18755;BME280;35061;47.664;9.166;2024-01-30T01:26:20;103174.14;;;1.10;100.00
18755;BME280;35061;47.664;9.166;2024-01-30T01:28:49;103171.33;;;1.10;100.00
18755;BME280;35061;47.664;9.166;2024-01-30T01:31:17;103170.12;;;1.11;100.00
18755;BME280;35061;47.664;9.166;2024-01-30T01:33:45;103164.92;;;1.13;100.00
18755;BME280;35061;47.664;9.166;2024-01-30T01:36:13;103169.11;;;1.19;100.00
18755;BME280;35061;47.664;9.166;2024-01-30T01:38:41;103174.30;;;1.17;100.00
18755;BME280;35061;47.664;9.166;2024-01-30T01:41:09;103174.30;;;1.17;100.00
18755;BME280;35061;47.664;9.166;2024-01-30T01:43:37;103176.01;;;1.22;100.00
18755;BME280;35061;47.664;9.166;2024-01-30T01:46:08;103175.09;;;1.18;100.00
18755;BME280;35061;47.664;9.166;2024-01-30T01:48:37;103175.09;;;1.18;100.00
18755;BME280;35061;47.664;9.166;2024-01-30T01:51:07;103183.49;;;1.14;100.00
18755;BME280;35061;47.664;9.166;2024-01-30T01:53:36;103177.48;;;1.16;100.00
18755;BME280;35061;47.664;9.166;2024-01-30T01:56:05;103176.37;;;1.20;100.00
18755;BME280;35061;47.664;9.166;2024-01-30T01:58:33;103174.38;;;1.21;100.00
18755;BME280;35061;47.664;9.166;2024-01-30T02:01:02;103168.78;;;1.24;100.00
18755;BME280;35061;47.664;9.166;2024-01-30T02:03:30;103172.45;;;1.25;100.00
18755;BME280;35061;47.664;9.166;2024-01-30T02:05:58;103170.52;;;1.29;100.00
18755;BME280;35061;47.664;9.166;2024-01-30T02:08:26;103162.05;;;1.29;100.00
18755;BME280;35061;47.664;9.166;2024-01-30T02:10:55;103167.51;;;1.22;100.00
18755;BME280;35061;47.664;9.166;2024-01-30T02:13:23;103165.22;;;1.08;100.00
18755;BME280;35061;47.664;9.166;2024-01-30T02:15:51;103167.38;;;1.15;100.00
18755;BME280;35061;47.664;9.166;2024-01-30T02:18:20;103164.27;;;1.20;100.00
18755;BME280;35061;47.664;9.166;2024-01-30T02:20:53;103170.74;;;1.20;100.00
18755;BME280;35061;47.664;9.166;2024-01-30T02:23:24;103167.24;;;1.27;100.00
18755;BME280;35061;47.664;9.166;2024-01-30T02:25:55;103170.05;;;1.27;100.00
18755;BME280;35061;47.664;9.166;2024-01-30T02:28:23;103161.23;;;1.29;100.00
18755;BME280;35061;47.664;9.166;2024-01-30T02:30:51;103168.06;;;1.28;100.00
18755;BME280;35061;47.664;9.166;2024-01-30T02:33:19;103161.52;;;1.23;100.00
18755;BME280;35061;47.664;9.166;2024-01-30T02:35:49;103155.80;;;1.20;100.00
18755;BME280;35061;47.664;9.166;2024-01-30T02:38:17;103160.31;;;1.24;100.00
18755;BME280;35061;47.664;9.166;2024-01-30T02:40:45;103161.59;;;1.27;100.00
18755;BME280;35061;47.664;9.166;2024-01-30T02:43:13;103161.16;;;1.25;100.00
18755;BME280;35061;47.664;9.166;2024-01-30T02:45:41;103159.36;;;1.17;100.00
18755;BME280;35061;47.664;9.166;2024-01-30T02:48:09;103152.07;;;1.16;100.00
18755;BME280;35061;47.664;9.166;2024-01-30T02:50:37;103159.79;;;1.19;100.00
18755;BME280;35061;47.664;9.166;2024-01-30T02:53:05;103159.88;;;1.22;100.00
18755;BME280;35061;47.664;9.166;2024-01-30T02:55:33;103152.30;;;1.27;100.00
18755;BME280;35061;47.664;9.166;2024-01-30T02:58:01;103155.60;;;1.29;100.00
18755;BME280;35061;47.664;9.166;2024-01-30T03:00:29;103156.84;;;1.31;100.00
18755;BME280;35061;47.664;9.166;2024-01-30T03:02:57;103160.48;;;1.32;100.00
18755;BME280;35061;47.664;9.166;2024-01-30T03:05:25;103153.97;;;1.28;100.00
18755;BME280;35061;47.664;9.166;2024-01-30T03:07:53;103155.11;;;1.27;100.00
18755;BME280;35061;47.664;9.166;2024-01-30T03:10:21;103154.23;;;1.22;100.00
18755;BME280;35061;47.664;9.166;2024-01-30T03:12:49;103141.67;;;1.20;100.00
18755;BME280;35061;47.664;9.166;2024-01-30T03:15:17;103154.98;;;1.19;100.00
18755;BME280;35061;47.664;9.166;2024-01-30T03:17:45;103149.72;;;1.18;100.00
18755;BME280;35061;47.664;9.166;2024-01-30T03:20:13;103151.55;;;1.10;100.00
18755;BME280;35061;47.664;9.166;2024-01-30T03:22:41;103152.30;;;1.07;100.00
18755;BME280;35061;47.664;9.166;2024-01-30T03:25:09;103151.38;;;1.03;100.00
18755;BME280;35061;47.664;9.166;2024-01-30T03:27:37;103156.23;;;1.02;100.00
18755;BME280;35061;47.664;9.166;2024-01-30T03:30:06;103150.60;;;1.02;100.00
18755;BME280;35061;47.664;9.166;2024-01-30T03:32:34;103149.68;;;0.98;100.00
18755;BME280;35061;47.664;9.166;2024-01-30T03:35:02;103152.89;;;0.96;100.00
18755;BME280;35061;47.664;9.166;2024-01-30T03:37:30;103154.03;;;0.95;100.00
18755;BME280;35061;47.664;9.166;2024-01-30T03:39:58;103149.59;;;0.94;100.00
18755;BME280;35061;47.664;9.166;2024-01-30T03:42:26;103150.44;;;0.95;100.00
18755;BME280;35061;47.664;9.166;2024-01-30T03:44:55;103146.77;;;0.94;100.00
18755;BME280;35061;47.664;9.166;2024-01-30T03:47:23;103151.77;;;1.01;100.00
18755;BME280;35061;47.664;9.166;2024-01-30T03:49:51;103154.75;;;1.08;100.00
18755;BME280;35061;47.664;9.166;2024-01-30T03:52:19;103141.64;;;1.00;100.00
18755;BME280;35061;47.664;9.166;2024-01-30T03:54:47;103144.26;;;0.89;100.00
18755;BME280;35061;47.664;9.166;2024-01-30T03:57:15;103142.09;;;0.82;100.00
18755;BME280;35061;47.664;9.166;2024-01-30T03:59:44;103144.84;;;0.79;100.00
18755;BME280;35061;47.664;9.166;2024-01-30T04:02:11;103135.30;;;0.67;100.00
18755;BME280;35061;47.664;9.166;2024-01-30T04:04:40;103144.13;;;0.66;100.00
18755;BME280;35061;47.664;9.166;2024-01-30T04:07:08;103136.41;;;0.63;100.00
18755;BME280;35061;47.664;9.166;2024-01-30T04:09:38;103139.48;;;0.58;100.00
18755;BME280;35061;47.664;9.166;2024-01-30T04:12:06;103139.05;;;0.55;100.00
18755;BME280;35061;47.664;9.166;2024-01-30T04:14:34;103133.30;;;0.52;100.00
18755;BME280;35061;47.664;9.166;2024-01-30T04:17:03;103137.32;;;0.51;100.00
18755;BME280;35061;47.664;9.166;2024-01-30T04:19:31;103142.16;;;0.50;100.00
18755;BME280;35061;47.664;9.166;2024-01-30T04:21:59;103143.41;;;0.53;100.00
18755;BME280;35061;47.664;9.166;2024-01-30T04:24:27;103142.62;;;0.52;100.00
18755;BME280;35061;47.664;9.166;2024-01-30T04:26:55;103140.98;;;0.51;100.00
18755;BME280;35061;47.664;9.166;2024-01-30T04:29:23;103137.71;;;0.49;100.00
18755;BME280;35061;47.664;9.166;2024-01-30T04:31:51;103142.06;;;0.47;100.00
18755;BME280;35061;47.664;9.166;2024-01-30T04:34:19;103133.59;;;0.47;100.00
18755;BME280;35061;47.664;9.166;2024-01-30T04:36:47;103135.98;;;0.45;100.00
18755;BME280;35061;47.664;9.166;2024-01-30T04:39:15;103139.45;;;0.38;100.00
18755;BME280;35061;47.664;9.166;2024-01-30T04:41:43;103140.16;;;0.35;100.00
18755;BME280;35061;47.664;9.166;2024-01-30T04:44:11;103143.73;;;0.32;100.00
18755;BME280;35061;47.664;9.166;2024-01-30T04:46:39;103140.88;;;0.32;100.00
18755;BME280;35061;47.664;9.166;2024-01-30T04:49:07;103140.56;;;0.33;100.00
18755;BME280;35061;47.664;9.166;2024-01-30T04:51:35;103142.98;;;0.35;100.00
18755;BME280;35061;47.664;9.166;2024-01-30T04:54:03;103145.70;;;0.31;100.00
18755;BME280;35061;47.664;9.166;2024-01-30T04:56:32;103135.06;;;0.24;100.00
18755;BME280;35061;47.664;9.166;2024-01-30T04:59:00;103137.45;;;0.22;100.00
18755;BME280;35061;47.664;9.166;2024-01-30T05:01:29;103145.01;;;0.18;100.00
18755;BME280;35061;47.664;9.166;2024-01-30T05:03:57;103142.36;;;0.09;100.00
18755;BME280;35061;47.664;9.166;2024-01-30T05:06:26;103153.09;;;0.04;100.00
18755;BME280;35061;47.664;9.166;2024-01-30T05:08:54;103155.34;;;-0.02;100.00
18755;BME280;35061;47.664;9.166;2024-01-30T05:11:22;103157.37;;;-0.03;100.00
18755;BME280;35061;47.664;9.166;2024-01-30T05:13:50;103147.36;;;0.00;100.00
18755;BME280;35061;47.664;9.166;2024-01-30T05:16:18;103165.09;;;0.01;100.00
18755;BME280;35061;47.664;9.166;2024-01-30T05:18:46;103159.79;;;-0.01;100.00
18755;BME280;35061;47.664;9.166;2024-01-30T05:21:14;103159.23;;;-0.07;100.00
18755;BME280;35061;47.664;9.166;2024-01-30T05:23:42;103169.83;;;-0.04;100.00
18755;BME280;35061;47.664;9.166;2024-01-30T05:26:10;103178.27;;;-0.04;100.00
18755;BME280;35061;47.664;9.166;2024-01-30T05:28:38;103166.52;;;-0.06;100.00
18755;BME280;35061;47.664;9.166;2024-01-30T05:31:06;103171.33;;;-0.06;100.00
18755;BME280;35061;47.664;9.166;2024-01-30T05:33:34;103172.15;;;-0.06;100.00
18755;BME280;35061;47.664;9.166;2024-01-30T05:36:03;103180.36;;;-0.01;100.00
18755;BME280;35061;47.664;9.166;2024-01-30T05:38:31;103182.09;;;0.04;100.00
18755;BME280;35061;47.664;9.166;2024-01-30T05:40:59;103175.55;;;0.00;100.00
18755;BME280;35061;47.664;9.166;2024-01-30T05:43:27;103184.90;;;0.04;100.00
18755;BME280;35061;47.664;9.166;2024-01-30T05:45:56;103181.24;;;0.04;100.00
18755;BME280;35061;47.664;9.166;2024-01-30T05:48:23;103182.09;;;0.04;100.00
18755;BME280;35061;47.664;9.166;2024-01-30T05:50:51;103179.37;;;0.08;100.00
18755;BME280;35061;47.664;9.166;2024-01-30T05:53:20;103169.27;;;0.07;100.00
18755;BME280;35061;47.664;9.166;2024-01-30T05:55:48;103178.20;;;0.09;100.00
18755;BME280;35061;47.664;9.166;2024-01-30T05:58:16;103178.00;;;0.18;100.00
18755;BME280;35061;47.664;9.166;2024-01-30T06:00:44;103182.45;;;0.19;100.00
18755;BME280;35061;47.664;9.166;2024-01-30T06:03:12;103179.84;;;0.26;100.00
18755;BME280;35061;47.664;9.166;2024-01-30T06:05:40;103174.83;;;0.35;100.00
18755;BME280;35061;47.664;9.166;2024-01-30T06:08:08;103177.25;;;0.37;100.00
18755;BME280;35061;47.664;9.166;2024-01-30T06:10:36;103184.28;;;0.43;100.00
18755;BME280;35061;47.664;9.166;2024-01-30T06:13:04;103174.63;;;0.44;100.00
18755;BME280;35061;47.664;9.166;2024-01-30T06:15:32;103175.55;;;0.48;100.00
18755;BME280;35061;47.664;9.166;2024-01-30T06:18:00;103174.27;;;0.46;100.00
18755;BME280;35061;47.664;9.166;2024-01-30T06:20:28;103174.93;;;0.39;100.00
18755;BME280;35061;47.664;9.166;2024-01-30T06:22:56;103172.34;;;0.34;100.00
18755;BME280;35061;47.664;9.166;2024-01-30T06:25:24;103179.37;;;0.40;100.00
18755;BME280;35061;47.664;9.166;2024-01-30T06:27:53;103181.47;;;0.43;100.00
18755;BME280;35061;47.664;9.166;2024-01-30T06:30:21;103175.91;;;0.47;100.00
18755;BME280;35061;47.664;9.166;2024-01-30T06:32:48;103179.08;;;0.45;100.00
18755;BME280;35061;47.664;9.166;2024-01-30T06:35:17;103182.65;;;0.42;100.00
18755;BME280;35061;47.664;9.166;2024-01-30T06:37:45;103180.91;;;0.37;100.00
18755;BME280;35061;47.664;9.166;2024-01-30T06:40:13;103182.09;;;0.36;100.00
18755;BME280;35061;47.664;9.166;2024-01-30T06:42:41;103179.93;;;0.30;100.00
18755;BME280;35061;47.664;9.166;2024-01-30T06:45:09;103177.02;;;0.26;100.00
18755;BME280;35061;47.664;9.166;2024-01-30T06:47:38;103181.20;;;0.32;100.00
18755;BME280;35061;47.664;9.166;2024-01-30T06:50:06;103174.63;;;0.28;100.00
18755;BME280;35061;47.664;9.166;2024-01-30T06:52:34;103172.18;;;0.26;100.00
18755;BME280;35061;47.664;9.166;2024-01-30T06:55:02;103189.48;;;0.25;100.00
18755;BME280;35061;47.664;9.166;2024-01-30T06:57:30;103189.58;;;0.29;100.00
18755;BME280;35061;47.664;9.166;2024-01-30T06:59:58;103190.27;;;0.25;100.00
18755;BME280;35061;47.664;9.166;2024-01-30T07:02:26;103190.82;;;0.31;100.00
18755;BME280;35061;47.664;9.166;2024-01-30T07:04:55;103193.01;;;0.38;100.00
18755;BME280;35061;47.664;9.166;2024-01-30T07:07:23;103195.56;;;0.43;100.00
18755;BME280;35061;47.664;9.166;2024-01-30T07:09:51;103193.57;;;0.44;100.00
18755;BME280;35061;47.664;9.166;2024-01-30T07:12:24;103196.54;;;0.51;100.00
18755;BME280;35061;47.664;9.166;2024-01-30T07:14:55;103195.89;;;0.58;100.00
18755;BME280;35061;47.664;9.166;2024-01-30T07:17:24;103190.27;;;0.58;100.00
18755;BME280;35061;47.664;9.166;2024-01-30T07:19:52;103197.55;;;0.59;100.00
18755;BME280;35061;47.664;9.166;2024-01-30T07:22:20;103200.92;;;0.64;100.00
18755;BME280;35061;47.664;9.166;2024-01-30T07:24:48;103204.09;;;0.63;100.00
18755;BME280;35061;47.664;9.166;2024-01-30T07:27:17;103200.92;;;0.64;100.00
18755;BME280;35061;47.664;9.166;2024-01-30T07:29:45;103207.37;;;0.65;100.00
18755;BME280;35061;47.664;9.166;2024-01-30T07:32:13;103211.03;;;0.65;100.00
18755;BME280;35061;47.664;9.166;2024-01-30T07:34:41;103201.64;;;0.61;100.00
18755;BME280;35061;47.664;9.166;2024-01-30T07:37:28;103202.07;;;0.63;100.00
18755;BME280;35061;47.664;9.166;2024-01-30T07:39:56;103204.29;;;0.70;100.00
18755;BME280;35061;47.664;9.166;2024-01-30T07:42:24;103202.72;;;0.73;100.00
18755;BME280;35061;47.664;9.166;2024-01-30T07:44:53;103206.45;;;0.77;100.00
18755;BME280;35061;47.664;9.166;2024-01-30T07:47:21;103216.78;;;0.89;100.00
18755;BME280;35061;47.664;9.166;2024-01-30T07:49:49;103218.52;;;0.93;100.00
18755;BME280;35061;47.664;9.166;2024-01-30T07:52:17;103214.98;;;0.96;100.00
18755;BME280;35061;47.664;9.166;2024-01-30T07:54:45;103218.88;;;1.08;100.00
18755;BME280;35061;47.664;9.166;2024-01-30T07:57:13;103221.82;;;1.15;100.00
18755;BME280;35061;47.664;9.166;2024-01-30T07:59:43;103216.36;;;1.22;100.00
18755;BME280;35061;47.664;9.166;2024-01-30T08:02:13;103221.91;;;1.19;100.00
18755;BME280;35061;47.664;9.166;2024-01-30T08:04:41;103229.51;;;1.15;100.00
18755;BME280;35061;47.664;9.166;2024-01-30T08:07:10;103231.50;;;1.14;100.00
18755;BME280;35061;47.664;9.166;2024-01-30T08:09:38;103241.05;;;1.09;100.00
18755;BME280;35061;47.664;9.166;2024-01-30T08:12:06;103234.60;;;1.09;100.00
18755;BME280;35061;47.664;9.166;2024-01-30T08:14:34;103235.33;;;1.06;100.00
18755;BME280;35061;47.664;9.166;2024-01-30T08:17:02;103239.70;;;1.03;100.00
18755;BME280;35061;47.664;9.166;2024-01-30T08:19:30;103228.78;;;1.02;100.00
18755;BME280;35061;47.664;9.166;2024-01-30T08:21:58;103232.71;;;0.97;100.00
18755;BME280;35061;47.664;9.166;2024-01-30T08:24:26;103232.38;;;0.82;100.00
18755;BME280;35061;47.664;9.166;2024-01-30T08:26:54;103231.63;;;0.86;100.00
18755;BME280;35061;47.664;9.166;2024-01-30T08:29:23;103233.92;;;0.80;100.00
18755;BME280;35061;47.664;9.166;2024-01-30T08:31:51;103232.48;;;0.86;100.00
18755;BME280;35061;47.664;9.166;2024-01-30T08:34:19;103237.29;;;0.86;100.00
18755;BME280;35061;47.664;9.166;2024-01-30T08:36:47;103239.02;;;0.90;100.00
18755;BME280;35061;47.664;9.166;2024-01-30T08:39:15;103240.55;;;0.88;100.00
18755;BME280;35061;47.664;9.166;2024-01-30T08:41:44;103238.10;;;0.86;100.00
18755;BME280;35061;47.664;9.166;2024-01-30T08:44:12;103248.66;;;0.89;100.00
18755;BME280;35061;47.664;9.166;2024-01-30T08:46:40;103250.10;;;0.83;100.00
18755;BME280;35061;47.664;9.166;2024-01-30T08:49:08;103235.20;;;0.82;100.00
18755;BME280;35061;47.664;9.166;2024-01-30T08:51:36;103238.37;;;0.81;100.00
18755;BME280;35061;47.664;9.166;2024-01-30T08:54:04;103245.10;;;0.76;100.00
18755;BME280;35061;47.664;9.166;2024-01-30T08:56:32;103246.61;;;0.70;100.00
18755;BME280;35061;47.664;9.166;2024-01-30T08:59:00;103255.96;;;0.74;100.00
18755;BME280;35061;47.664;9.166;2024-01-30T09:01:28;103254.32;;;0.73;100.00
18755;BME280;35061;47.664;9.166;2024-01-30T09:03:56;103253.67;;;0.80;100.00
18755;BME280;35061;47.664;9.166;2024-01-30T09:06:25;103249.38;;;0.86;100.00
18755;BME280;35061;47.664;9.166;2024-01-30T09:08:55;103258.02;;;0.93;100.00
18755;BME280;35061;47.664;9.166;2024-01-30T09:11:25;103257.85;;;1.02;100.00
18755;BME280;35061;47.664;9.166;2024-01-30T09:13:53;103263.09;;;1.04;100.00
18755;BME280;35061;47.664;9.166;2024-01-30T09:16:22;103251.91;;;1.07;100.00
18755;BME280;35061;47.664;9.166;2024-01-30T09:18:50;103260.11;;;1.13;100.00
18755;BME280;35061;47.664;9.166;2024-01-30T09:21:18;103256.19;;;1.17;100.00
18755;BME280;35061;47.664;9.166;2024-01-30T09:23:46;103257.82;;;1.18;100.00
18755;BME280;35061;47.664;9.166;2024-01-30T09:26:14;103259.06;;;1.21;100.00
18755;BME280;35061;47.664;9.166;2024-01-30T09:28:42;103252.79;;;1.28;100.00
18755;BME280;35061;47.664;9.166;2024-01-30T09:31:10;103252.82;;;1.31;100.00
18755;BME280;35061;47.664;9.166;2024-01-30T09:33:39;103262.56;;;1.34;100.00
18755;BME280;35061;47.664;9.166;2024-01-30T09:36:07;103259.75;;;1.34;100.00
18755;BME280;35061;47.664;9.166;2024-01-30T09:38:35;103265.93;;;1.39;100.00
18755;BME280;35061;47.664;9.166;2024-01-30T09:41:08;103260.11;;;1.32;100.00
18755;BME280;35061;47.664;9.166;2024-01-30T09:43:38;103267.34;;;1.30;100.00
18755;BME280;35061;47.664;9.166;2024-01-30T09:46:11;103262.66;;;1.37;100.00
18755;BME280;35061;47.664;9.166;2024-01-30T09:48:41;103270.38;;;1.41;100.00
18755;BME280;35061;47.664;9.166;2024-01-30T09:51:11;103263.94;;;1.40;100.00
18755;BME280;35061;47.664;9.166;2024-01-30T09:53:40;103267.47;;;1.37;100.00
18755;BME280;35061;47.664;9.166;2024-01-30T09:56:08;103261.84;;;1.37;100.00
18755;BME280;35061;47.664;9.166;2024-01-30T09:58:36;103266.69;;;1.36;100.00
18755;BME280;35061;47.664;9.166;2024-01-30T10:01:04;103271.66;;;1.43;100.00
18755;BME280;35061;47.664;9.166;2024-01-30T10:03:32;103270.25;;;1.53;100.00
18755;BME280;35061;47.664;9.166;2024-01-30T10:06:01;103271.23;;;1.61;100.00
18755;BME280;35061;47.664;9.166;2024-01-30T10:08:29;103265.38;;;1.70;100.00
18755;BME280;35061;47.664;9.166;2024-01-30T10:10:57;103270.67;;;1.71;100.00
18755;BME280;35061;47.664;9.166;2024-01-30T10:13:25;103271.88;;;1.74;100.00
18755;BME280;35061;47.664;9.166;2024-01-30T10:15:53;103271.10;;;1.73;100.00
18755;BME280;35061;47.664;9.166;2024-01-30T10:18:22;103263.91;;;1.76;100.00
18755;BME280;35061;47.664;9.166;2024-01-30T10:20:51;103265.15;;;1.78;100.00
18755;BME280;35061;47.664;9.166;2024-01-30T10:23:19;103261.26;;;1.87;100.00
18755;BME280;35061;47.664;9.166;2024-01-30T10:25:48;103259.03;;;1.96;100.00
18755;BME280;35061;47.664;9.166;2024-01-30T10:28:16;103266.33;;;1.97;100.00
18755;BME280;35061;47.664;9.166;2024-01-30T10:30:44;103268.02;;;2.02;100.00
18755;BME280;35061;47.664;9.166;2024-01-30T10:33:12;103264.07;;;2.06;100.00
18755;BME280;35061;47.664;9.166;2024-01-30T10:35:40;103257.23;;;2.07;100.00
18755;BME280;35061;47.664;9.166;2024-01-30T10:38:09;103255.77;;;2.14;100.00
18755;BME280;35061;47.664;9.166;2024-01-30T10:40:42;103256.29;;;2.23;100.00
18755;BME280;35061;47.664;9.166;2024-01-30T10:43:14;103257.27;;;2.31;100.00
18755;BME280;35061;47.664;9.166;2024-01-30T10:45:44;103258.21;;;2.39;100.00
18755;BME280;35061;47.664;9.166;2024-01-30T10:48:16;103254.32;;;2.47;100.00
18755;BME280;35061;47.664;9.166;2024-01-30T10:50:49;103249.22;;;2.56;100.00
18755;BME280;35061;47.664;9.166;2024-01-30T10:53:26;103252.72;;;2.73;100.00
18755;BME280;35061;47.664;9.166;2024-01-30T10:55:58;103243.60;;;2.83;100.00
18755;BME280;35061;47.664;9.166;2024-01-30T10:58:27;103242.03;;;2.86;100.00
18755;BME280;35061;47.664;9.166;2024-01-30T11:00:55;103238.76;;;2.84;100.00
18755;BME280;35061;47.664;9.166;2024-01-30T11:03:25;103235.16;;;2.87;100.00
18755;BME280;35061;47.664;9.166;2024-01-30T11:05:53;103240.82;;;2.87;100.00
18755;BME280;35061;47.664;9.166;2024-01-30T11:08:24;103239.58;;;2.84;100.00
18755;BME280;35061;47.664;9.166;2024-01-30T11:10:57;103242.75;;;2.79;100.00
18755;BME280;35061;47.664;9.166;2024-01-30T11:13:31;103230.32;;;2.87;100.00
18755;BME280;35061;47.664;9.166;2024-01-30T11:16:05;103222.70;;;2.91;100.00
18755;BME280;35061;47.664;9.166;2024-01-30T11:18:35;103223.20;;;2.97;100.00
18755;BME280;35061;47.664;9.166;2024-01-30T11:21:04;103218.45;;;3.05;100.00
18755;BME280;35061;47.664;9.166;2024-01-30T11:23:34;103218.95;;;3.11;100.00
18755;BME280;35061;47.664;9.166;2024-01-30T11:26:03;103218.26;;;3.21;100.00
18755;BME280;35061;47.664;9.166;2024-01-30T11:28:37;103216.26;;;3.21;100.00
18755;BME280;35061;47.664;9.166;2024-01-30T11:31:07;103212.76;;;3.32;100.00
18755;BME280;35061;47.664;9.166;2024-01-30T11:33:35;103220.55;;;3.39;100.00
18755;BME280;35061;47.664;9.166;2024-01-30T11:36:04;103212.56;;;3.48;100.00
18755;BME280;35061;47.664;9.166;2024-01-30T11:38:34;103218.29;;;3.52;100.00
18755;BME280;35061;47.664;9.166;2024-01-30T11:41:03;103203.34;;;3.55;100.00
18755;BME280;35061;47.664;9.166;2024-01-30T11:43:32;103201.74;;;3.57;100.00
18755;BME280;35061;47.664;9.166;2024-01-30T11:46:01;103203.87;;;3.64;100.00
18755;BME280;35061;47.664;9.166;2024-01-30T11:48:30;103198.60;;;3.66;100.00
18755;BME280;35061;47.664;9.166;2024-01-30T11:50:58;103188.99;;;3.74;100.00
18755;BME280;35061;47.664;9.166;2024-01-30T11:53:27;103191.93;;;3.85;100.00
18755;BME280;35061;47.664;9.166;2024-01-30T11:55:55;103188.30;;;3.85;100.00
18755;BME280;35061;47.664;9.166;2024-01-30T11:58:25;103171.79;;;3.94;100.00
18755;BME280;35061;47.664;9.166;2024-01-30T12:00:55;103180.78;;;4.03;100.00
18755;BME280;35061;47.664;9.166;2024-01-30T12:03:23;103159.76;;;4.04;100.00
18755;BME280;35061;47.664;9.166;2024-01-30T12:05:58;103162.99;;;4.07;100.00
18755;BME280;35061;47.664;9.166;2024-01-30T12:08:27;103163.88;;;4.14;100.00
18755;BME280;35061;47.664;9.166;2024-01-30T12:10:56;103166.75;;;4.18;100.00
18755;BME280;35061;47.664;9.166;2024-01-30T12:13:26;103159.92;;;4.26;100.00
18755;BME280;35061;47.664;9.166;2024-01-30T12:15:59;103156.75;;;4.35;100.00
18755;BME280;35061;47.664;9.166;2024-01-30T12:18:27;103154.78;;;4.43;100.00
18755;BME280;35061;47.664;9.166;2024-01-30T12:21:01;103156.06;;;4.49;100.00
18755;BME280;35061;47.664;9.166;2024-01-30T12:23:30;103144.32;;;4.54;100.00
18755;BME280;35061;47.664;9.166;2024-01-30T12:25:58;103157.37;;;4.63;100.00
18755;BME280;35061;47.664;9.166;2024-01-30T12:28:26;103149.29;;;4.68;100.00
18755;BME280;35061;47.664;9.166;2024-01-30T12:31:01;103149.39;;;4.79;100.00
18755;BME280;35061;47.664;9.166;2024-01-30T12:33:30;103152.66;;;4.88;100.00
18755;BME280;35061;47.664;9.166;2024-01-30T12:36:01;103151.87;;;4.92;100.00
18755;BME280;35061;47.664;9.166;2024-01-30T12:38:30;103152.30;;;4.97;100.00
18755;BME280;35061;47.664;9.166;2024-01-30T12:40:58;103148.67;;;5.00;100.00
18755;BME280;35061;47.664;9.166;2024-01-30T12:43:27;103155.18;;;5.01;100.00
18755;BME280;35061;47.664;9.166;2024-01-30T12:46:04;103148.24;;;4.95;100.00
18755;BME280;35061;47.664;9.166;2024-01-30T12:48:33;103149.45;;;4.94;100.00
18755;BME280;35061;47.664;9.166;2024-01-30T12:51:02;103150.24;;;4.91;100.00
18755;BME280;35061;47.664;9.166;2024-01-30T12:53:32;103140.49;;;4.88;100.00
18755;BME280;35061;47.664;9.166;2024-01-30T12:56:01;103142.09;;;4.85;100.00
18755;BME280;35061;47.664;9.166;2024-01-30T12:58:29;103146.15;;;4.84;100.00